Time;durP1;ratioP1;P1;durP2;ratioP2;P2;SDS_P1;SDS_P2;PMS_P1;PMS_P2;Temp;Humidity;BMP_temperature;BMP_pressure;BME280_temperature;BME280_humidity;BME280_pressure;Samples;Min_cycle;Max_cycle;Signal;HPM_P1;HPM_P2
2023/01/27 00:01:28;;;;;;;12.45;5.30;;;4.30;99.90;;;;;;4173920;28;20044;-84
2023/01/27 00:03:31;;;;;;;14.70;5.70;;;3.40;99.90;;;;;;4184356;28;20041;-84
2023/01/27 00:05:33;;;;;;;11.20;5.25;;;5.40;99.90;;;;;;4165609;28;20045;-84
2023/01/27 00:07:34;;;;;;;16.73;5.90;;;4.30;99.90;;;;;;4182926;28;20051;-85
2023/01/27 00:09:34;;;;;;;12.60;5.78;;;4.20;99.90;;;;;;4182268;28;20033;-84
2023/01/27 00:13:56;;;;;;;11.93;5.38;;;5.20;99.90;;;;;;4182977;28;20060;-84
2023/01/27 00:15:58;;;;;;;10.63;5.18;;;5.10;99.90;;;;;;4183489;28;20045;-85
2023/01/27 00:18:00;;;;;;;9.05;4.75;;;4.20;99.90;;;;;;4180642;28;20594;-84
2023/01/27 00:20:03;;;;;;;11.80;4.82;;;5.20;99.90;;;;;;4178140;28;20086;-84
2023/01/27 00:24:35;;;;;;;13.75;4.45;;;4.10;99.90;;;;;;4167655;28;20103;-84
2023/01/27 00:26:38;;;;;;;10.27;4.00;;;4.10;99.90;;;;;;4167293;28;20072;-84
2023/01/27 00:28:39;;;;;;;9.23;4.13;;;4.10;99.90;;;;;;4181888;28;20124;-84
2023/01/27 00:30:40;;;;;;;8.98;4.47;;;4.10;99.90;;;;;;4183082;28;20056;-84
2023/01/27 00:35:01;;;;;;;9.68;4.50;;;4.10;99.90;;;;;;4182904;28;20083;-84
2023/01/27 00:37:03;;;;;;;9.38;4.05;;;4.10;99.90;;;;;;4183021;28;20044;-84
2023/01/27 00:39:05;;;;;;;10.98;3.67;;;4.90;99.90;;;;;;4182751;28;20045;-84
2023/01/27 00:41:19;;;;;;;8.80;3.80;;;5.00;99.90;;;;;;4182841;28;20501;-84
2023/01/27 00:43:21;;;;;;;8.77;3.60;;;4.90;99.90;;;;;;4166488;28;20049;-84
2023/01/27 00:47:53;;;;;;;7.28;3.25;;;5.20;99.90;;;;;;4177288;28;20053;-84
2023/01/27 00:49:54;;;;;;;8.40;3.72;;;4.80;99.90;;;;;;4164460;28;20440;-84
2023/01/27 00:51:56;;;;;;;8.65;3.15;;;5.20;99.90;;;;;;4181303;28;20088;-84
2023/01/27 00:53:58;;;;;;;8.00;3.47;;;4.10;99.90;;;;;;4182489;28;20048;-84
2023/01/27 00:55:58;;;;;;;6.28;3.70;;;4.10;99.90;;;;;;4181033;28;20061;-84
2023/01/27 00:57:59;;;;;;;6.57;3.20;;;4.70;99.90;;;;;;4182319;28;20083;-84
2023/01/27 01:00:00;;;;;;;9.88;3.67;;;4.10;99.90;;;;;;4181905;28;20029;-84
2023/01/27 01:02:00;;;;;;;7.15;3.10;;;4.10;99.90;;;;;;4181904;28;20128;-85
2023/01/27 01:04:01;;;;;;;10.65;3.95;;;4.10;99.90;;;;;;4180768;28;20045;-85
2023/01/27 01:06:09;;;;;;;7.13;3.33;;;4.10;99.90;;;;;;4166169;28;20049;-85
2023/01/27 01:08:10;;;;;;;6.32;3.22;;;4.10;99.90;;;;;;4164751;28;20520;-83
2023/01/27 01:10:11;;;;;;;6.85;2.45;;;4.10;99.90;;;;;;4165556;28;20052;-83
2023/01/27 01:12:13;;;;;;;6.50;3.63;;;4.10;99.90;;;;;;4165008;28;20445;-83
2023/01/27 01:14:13;;;;;;;8.00;2.95;;;4.60;99.90;;;;;;4164591;28;20054;-83
2023/01/27 01:16:17;;;;;;;3.63;2.22;;;4.10;99.90;;;;;;4173097;28;20080;-82
2023/01/27 01:18:17;;;;;;;6.38;2.40;;;4.10;99.90;;;;;;4179989;28;20048;-83
2023/01/27 01:20:18;;;;;;;5.45;2.60;;;4.00;99.90;;;;;;4180661;28;20076;-83
2023/01/27 01:22:20;;;;;;;10.95;3.38;;;4.30;99.90;;;;;;4180730;28;20037;-83
2023/01/27 01:24:22;;;;;;;4.72;2.40;;;4.10;99.90;;;;;;4180479;28;20095;-83
2023/01/27 01:26:23;;;;;;;6.25;2.42;;;4.10;99.90;;;;;;4163697;28;20045;-83
2023/01/27 01:28:25;;;;;;;6.00;2.30;;;4.10;99.90;;;;;;4181590;28;20048;-83
2023/01/27 01:30:27;;;;;;;6.97;2.33;;;4.30;99.90;;;;;;4180223;28;20105;-83
2023/01/27 01:32:29;;;;;;;6.30;2.60;;;4.10;99.90;;;;;;4163932;28;20042;-83
2023/01/27 01:34:29;;;;;;;6.57;2.20;;;4.40;99.90;;;;;;4181621;28;20056;-83
2023/01/27 01:36:30;;;;;;;7.03;2.70;;;4.10;99.90;;;;;;4180879;28;20076;-84
2023/01/27 01:38:32;;;;;;;4.78;1.88;;;4.10;99.90;;;;;;4180844;28;20131;-84
2023/01/27 01:40:38;;;;;;;4.32;2.30;;;4.10;99.90;;;;;;4179904;28;20581;-84
2023/01/27 01:42:57;;;;;;;6.30;2.20;;;4.30;99.90;;;;;;4180637;28;20057;-84
2023/01/27 01:45:32;;;;;;;5.38;2.33;;;4.10;99.90;;;;;;4180176;28;20179;-84
2023/01/27 01:47:34;;;;;;;6.00;2.10;;;4.10;99.90;;;;;;4181178;28;20052;-84
2023/01/27 01:49:39;;;;;;;8.40;2.60;;;4.10;99.90;;;;;;4179687;28;20044;-83
2023/01/27 01:51:44;;;;;;;4.80;2.00;;;4.10;99.90;;;;;;4180690;28;20064;-84
2023/01/27 01:54:15;;;;;;;4.03;1.55;;;4.70;99.90;;;;;;4180380;28;20056;-84
2023/01/27 01:56:21;;;;;;;8.20;1.90;;;4.10;99.90;;;;;;4180951;28;20127;-84
2023/01/27 01:58:23;;;;;;;4.97;2.03;;;4.10;99.90;;;;;;4181972;28;20106;-84
2023/01/27 02:00:24;;;;;;;4.25;1.42;;;4.10;99.90;;;;;;4181448;28;20048;-84
2023/01/27 02:02:25;;;;;;;5.90;1.60;;;4.40;99.90;;;;;;4181902;28;20482;-84
2023/01/27 02:04:34;;;;;;;5.40;1.38;;;4.10;99.90;;;;;;4180226;28;20072;-84
2023/01/27 02:06:44;;;;;;;3.50;1.17;;;4.10;99.90;;;;;;4181442;28;20446;-84
2023/01/27 02:08:49;;;;;;;1.30;0.90;;;4.30;99.90;;;;;;4180015;28;20150;-84
2023/01/27 02:10:51;;;;;;;3.78;1.55;;;4.10;99.90;;;;;;4180103;28;20049;-84
2023/01/27 02:12:52;;;;;;;2.53;1.02;;;4.10;99.90;;;;;;4180090;28;20045;-84
2023/01/27 02:14:53;;;;;;;3.20;1.02;;;4.80;99.90;;;;;;4180038;28;20037;-84
2023/01/27 02:16:55;;;;;;;2.85;1.10;;;4.90;99.90;;;;;;4180179;28;20087;-84
2023/01/27 02:18:57;;;;;;;1.38;0.65;;;4.10;99.90;;;;;;4174445;28;20522;-84
2023/01/27 02:20:59;;;;;;;1.80;0.93;;;4.10;99.90;;;;;;4147667;28;20105;-84
2023/01/27 02:23:21;;;;;;;1.13;0.80;;;4.10;99.90;;;;;;4164912;28;20056;-84
2023/01/27 02:25:34;;;;;;;2.72;1.20;;;4.10;99.90;;;;;;4163447;28;20128;-84
2023/01/27 02:27:36;;;;;;;2.47;1.15;;;4.10;99.90;;;;;;4165078;28;20041;-84
2023/01/27 02:29:36;;;;;;;1.73;0.90;;;4.10;99.90;;;;;;4167306;28;20090;-83
2023/01/27 02:31:37;;;;;;;7.57;1.10;;;4.10;99.90;;;;;;4176527;28;20045;-83
2023/01/27 02:33:38;;;;;;;2.55;0.90;;;4.10;99.90;;;;;;4165288;28;20107;-84
2023/01/27 02:35:58;;;;;;;5.72;0.82;;;4.20;99.90;;;;;;4164735;28;20038;-84
2023/01/27 02:37:59;;;;;;;3.08;0.70;;;4.10;99.90;;;;;;4147313;28;20057;-84
2023/01/27 02:40:03;;;;;;;5.72;1.35;;;4.80;99.90;;;;;;4163537;28;20045;-84
2023/01/27 02:42:06;;;;;;;2.10;0.88;;;4.10;99.90;;;;;;4147021;28;20050;-84
2023/01/27 02:44:08;;;;;;;1.80;0.80;;;4.10;99.90;;;;;;4165096;28;20055;-84
2023/01/27 02:46:09;;;;;;;9.90;2.05;;;4.50;99.90;;;;;;4163496;28;20052;-83
2023/01/27 02:48:10;;;;;;;6.28;0.90;;;4.10;99.90;;;;;;4185248;28;20056;-84
2023/01/27 02:50:10;;;;;;;5.43;1.00;;;4.10;99.90;;;;;;4180830;28;20052;-84
2023/01/27 02:52:11;;;;;;;1.90;0.85;;;4.10;99.90;;;;;;4179769;28;20053;-84
2023/01/27 02:54:13;;;;;;;4.68;1.65;;;4.00;99.90;;;;;;4163817;28;20128;-84
2023/01/27 02:56:13;;;;;;;2.30;0.80;;;4.00;99.90;;;;;;4179851;28;20080;-85
2023/01/27 02:58:15;;;;;;;3.55;0.70;;;4.00;99.90;;;;;;4181386;28;20044;-85
2023/01/27 03:00:17;;;;;;;2.47;0.90;;;4.00;99.90;;;;;;4181350;28;20152;-85
2023/01/27 03:02:21;;;;;;;2.45;0.65;;;4.00;99.90;;;;;;4181103;28;20559;-85
2023/01/27 03:04:22;;;;;;;1.33;0.80;;;4.00;99.90;;;;;;4163225;28;20063;-84
2023/01/27 03:06:23;;;;;;;3.40;1.00;;;4.00;99.90;;;;;;4179294;28;20072;-84
2023/01/27 03:08:23;;;;;;;4.95;1.00;;;4.00;99.90;;;;;;4167386;28;20153;-84
2023/01/27 03:10:24;;;;;;;2.72;1.25;;;4.00;99.90;;;;;;4167696;28;20052;-84
2023/01/27 03:12:25;;;;;;;5.25;0.73;;;4.20;99.90;;;;;;4167766;28;20037;-84
2023/01/27 03:19:07;;;;;;;7.13;0.93;;;4.00;99.90;;;;;;4166648;28;20497;-84
2023/01/27 03:21:08;;;;;;;2.55;0.80;;;4.10;99.90;;;;;;4167635;28;20048;-84
2023/01/27 03:23:11;;;;;;;4.25;0.77;;;4.00;99.90;;;;;;4166128;28;20056;-84
2023/01/27 03:25:12;;;;;;;4.70;0.60;;;4.00;99.90;;;;;;4179663;28;20421;-84
2023/01/27 03:27:12;;;;;;;3.78;0.60;;;4.00;99.90;;;;;;4184098;28;20041;-84
2023/01/27 03:31:33;;;;;;;1.35;0.80;;;4.00;99.90;;;;;;4184030;28;20041;-84
2023/01/27 03:33:35;;;;;;;4.03;0.80;;;4.30;99.90;;;;;;4182380;28;20045;-84
2023/01/27 03:35:38;;;;;;;2.22;0.73;;;4.20;99.90;;;;;;4183679;28;20077;-84
2023/01/27 03:47:00;;;;;;;2.40;0.70;;;3.80;99.90;;;;;;4183758;28;20569;-83
2023/01/27 03:49:01;;;;;;;4.53;0.80;;;3.80;99.90;;;;;;4183072;28;20037;-84
2023/01/27 03:51:04;;;;;;;1.75;0.63;;;3.90;99.90;;;;;;4165737;28;20053;-83
2023/01/27 03:53:04;;;;;;;5.40;0.80;;;3.80;99.90;;;;;;4183340;28;20496;-84
2023/01/27 03:55:08;;;;;;;4.60;0.88;;;3.80;99.90;;;;;;4183497;28;20045;-84
2023/01/27 03:57:08;;;;;;;1.65;0.60;;;3.80;99.90;;;;;;4183283;28;20041;-83
2023/01/27 03:59:10;;;;;;;2.25;0.70;;;3.80;99.90;;;;;;4183351;28;20509;-83
2023/01/27 04:01:14;;;;;;;2.45;0.68;;;3.80;99.90;;;;;;4182703;28;20052;-84
2023/01/27 04:07:53;;;;;;;2.05;0.60;;;3.70;99.90;;;;;;4184505;28;20533;-85
2023/01/27 04:09:55;;;;;;;2.63;0.70;;;4.50;99.90;;;;;;4184615;28;20041;-84
2023/01/27 04:11:58;;;;;;;1.80;0.68;;;4.30;99.90;;;;;;4183258;28;20044;-85
2023/01/27 04:14:00;;;;;;;4.30;1.00;;;3.70;99.90;;;;;;4181372;28;20052;-84
2023/01/27 04:16:02;;;;;;;0.63;0.50;;;3.70;99.90;;;;;;4179737;28;20059;-84
2023/01/27 04:18:03;;;;;;;2.70;0.70;;;3.70;99.90;;;;;;4181873;28;20056;-84
2023/01/27 04:20:04;;;;;;;0.82;0.60;;;3.80;99.90;;;;;;4182651;28;20049;-85
2023/01/27 04:22:07;;;;;;;2.35;0.90;;;3.70;99.90;;;;;;4165757;28;20045;-85
2023/01/27 04:24:15;;;;;;;2.78;0.68;;;4.10;99.90;;;;;;4183467;28;20060;-85
2023/01/27 04:26:17;;;;;;;2.22;0.70;;;4.30;99.90;;;;;;4182196;28;20130;-85
2023/01/27 04:28:18;;;;;;;1.00;0.75;;;4.30;99.90;;;;;;4183198;28;20474;-84
2023/01/27 04:30:21;;;;;;;2.13;1.00;;;3.70;99.90;;;;;;4181355;28;20505;-84
2023/01/27 04:32:21;;;;;;;4.78;0.75;;;3.70;99.90;;;;;;4183352;28;20513;-85
2023/01/27 04:34:23;;;;;;;7.85;1.52;;;3.70;99.90;;;;;;4181428;28;20048;-84
2023/01/27 04:36:24;;;;;;;3.38;1.05;;;3.90;99.90;;;;;;4166670;28;20049;-84
2023/01/27 04:38:24;;;;;;;1.45;0.70;;;3.70;99.90;;;;;;4165555;28;20133;-84
2023/01/27 04:40:26;;;;;;;2.45;1.08;;;3.90;99.90;;;;;;4166342;28;20480;-85
2023/01/27 04:42:28;;;;;;;3.80;1.60;;;3.70;99.90;;;;;;4166654;28;20068;-84
2023/01/27 04:44:28;;;;;;;2.80;0.80;;;3.70;99.90;;;;;;4166444;28;20057;-84
2023/01/27 04:46:31;;;;;;;3.00;0.80;;;3.70;99.90;;;;;;4165137;28;20563;-84
2023/01/27 04:48:31;;;;;;;5.78;0.90;;;4.60;99.90;;;;;;4148929;28;20117;-84
2023/01/27 04:50:33;;;;;;;3.25;0.85;;;3.70;99.90;;;;;;4172952;28;20584;-84
2023/01/27 04:52:34;;;;;;;1.50;0.90;;;4.50;99.90;;;;;;4164940;28;20053;-84
2023/01/27 04:54:35;;;;;;;3.08;1.20;;;4.40;99.90;;;;;;4164935;28;20540;-84
2023/01/27 04:56:39;;;;;;;4.78;1.52;;;4.10;99.90;;;;;;4181779;28;20056;-84
2023/01/27 04:58:41;;;;;;;5.50;1.73;;;3.70;99.90;;;;;;4183500;28;20049;-84
2023/01/27 05:00:44;;;;;;;6.28;1.23;;;4.10;99.90;;;;;;4181229;28;20055;-84
2023/01/27 05:02:45;;;;;;;3.97;1.80;;;3.80;99.90;;;;;;4182767;28;20037;-84
2023/01/27 05:04:47;;;;;;;7.15;1.55;;;4.20;99.90;;;;;;4181280;28;20080;-85
2023/01/27 05:06:48;;;;;;;4.55;1.48;;;3.70;99.90;;;;;;4183017;28;20037;-84
2023/01/27 05:08:49;;;;;;;2.53;1.35;;;3.70;99.90;;;;;;4183415;28;20317;-84
2023/01/27 05:10:51;;;;;;;3.08;1.00;;;3.70;99.90;;;;;;4167824;28;20542;-84
2023/01/27 05:12:52;;;;;;;4.80;1.83;;;3.70;99.90;;;;;;4168817;28;20041;-84
2023/01/27 05:14:53;;;;;;;4.18;1.13;;;3.70;99.90;;;;;;4166513;28;20072;-84
2023/01/27 05:16:53;;;;;;;3.08;0.80;;;3.70;99.90;;;;;;4167548;28;20053;-84
2023/01/27 05:18:55;;;;;;;2.40;0.85;;;3.80;99.90;;;;;;4183625;28;20072;-84
2023/01/27 05:20:59;;;;;;;4.35;0.98;;;3.80;99.90;;;;;;4150808;28;20046;-84
2023/01/27 05:25:19;;;;;;;3.25;0.80;;;4.40;99.90;;;;;;4168018;28;20084;-83
2023/01/27 05:27:20;;;;;;;2.65;0.93;;;3.70;99.90;;;;;;4181825;28;20049;-84
2023/01/27 05:29:21;;;;;;;6.30;1.45;;;4.60;99.90;;;;;;4183299;28;20041;-84
2023/01/27 05:31:25;;;;;;;2.55;0.88;;;3.80;99.90;;;;;;4166650;28;20128;-84
2023/01/27 05:33:26;;;;;;;3.78;0.90;;;3.70;99.90;;;;;;4182896;28;20040;-84
2023/01/27 05:35:26;;;;;;;3.53;1.10;;;3.70;99.90;;;;;;4181057;28;20052;-84
2023/01/27 05:37:27;;;;;;;2.08;1.00;;;3.60;99.90;;;;;;4182216;28;20041;-84
2023/01/27 05:39:29;;;;;;;2.20;1.00;;;3.70;99.90;;;;;;4182728;28;20456;-84
2023/01/27 05:41:30;;;;;;;2.63;0.90;;;3.60;99.90;;;;;;4181060;28;20516;-84
2023/01/27 05:43:33;;;;;;;3.50;1.10;;;3.60;99.90;;;;;;4181547;28;20040;-84
2023/01/27 05:45:33;;;;;;;4.47;0.60;;;3.70;99.90;;;;;;4180802;28;20053;-84
2023/01/27 05:47:34;;;;;;;1.98;0.75;;;3.80;99.90;;;;;;4182232;28;20114;-84
2023/01/27 05:49:35;;;;;;;4.32;0.80;;;4.00;99.90;;;;;;4180726;28;20060;-84
2023/01/27 05:51:38;;;;;;;4.25;0.80;;;3.60;99.90;;;;;;4163739;28;20132;-84
2023/01/27 05:53:40;;;;;;;3.50;1.00;;;3.90;99.90;;;;;;4184589;28;20123;-84
2023/01/27 05:55:42;;;;;;;2.13;0.88;;;3.60;99.90;;;;;;4180431;28;20060;-84
2023/01/27 05:57:43;;;;;;;4.30;1.75;;;4.20;99.90;;;;;;4181458;28;20049;-84
2023/01/27 05:59:45;;;;;;;5.05;0.70;;;4.70;99.90;;;;;;4151707;28;20104;-84
2023/01/27 06:01:45;;;;;;;3.33;0.88;;;3.60;99.90;;;;;;4181798;28;20461;-84
2023/01/27 06:03:47;;;;;;;3.33;0.90;;;3.80;99.90;;;;;;4164336;28;20041;-84
2023/01/27 06:05:55;;;;;;;7.00;1.63;;;4.20;99.90;;;;;;4180699;28;20123;-84
2023/01/27 06:07:56;;;;;;;3.78;0.88;;;3.70;99.90;;;;;;4181443;28;20071;-84
2023/01/27 06:09:57;;;;;;;4.35;1.60;;;3.50;99.90;;;;;;4180598;28;20452;-84
2023/01/27 06:11:57;;;;;;;4.25;1.08;;;3.70;99.90;;;;;;4181864;28;20087;-84
2023/01/27 06:13:58;;;;;;;3.45;1.00;;;3.50;99.90;;;;;;4181324;28;20045;-84
2023/01/27 06:16:01;;;;;;;3.35;0.80;;;4.00;99.90;;;;;;4180392;28;20048;-84
2023/01/27 06:18:03;;;;;;;1.92;0.75;;;3.40;99.90;;;;;;4180879;28;20049;-84
2023/01/27 06:20:04;;;;;;;1.52;0.80;;;3.40;99.90;;;;;;4179623;28;20596;-84
2023/01/27 06:22:06;;;;;;;1.92;0.80;;;3.30;99.90;;;;;;4164118;28;20052;-84
2023/01/27 06:24:07;;;;;;;1.42;0.90;;;3.30;99.90;;;;;;4164266;28;20080;-84
2023/01/27 06:26:10;;;;;;;1.00;0.75;;;3.30;99.90;;;;;;4179984;28;20052;-84
2023/01/27 06:28:11;;;;;;;1.45;0.80;;;3.30;99.90;;;;;;4164782;28;20192;-84
2023/01/27 06:30:13;;;;;;;1.27;0.65;;;3.20;99.90;;;;;;4147099;28;20053;-85
2023/01/27 06:32:13;;;;;;;1.95;1.08;;;3.20;99.90;;;;;;4147262;28;20049;-82
2023/01/27 06:34:14;;;;;;;0.55;0.55;;;3.30;99.90;;;;;;4165077;28;20104;-84
2023/01/27 06:36:17;;;;;;;0.70;0.68;;;3.20;99.90;;;;;;4178145;28;20081;-84
2023/01/27 06:38:18;;;;;;;1.80;0.68;;;4.20;99.90;;;;;;4176940;28;20048;-85
2023/01/27 06:40:20;;;;;;;3.22;0.60;;;3.20;99.90;;;;;;4164315;28;20045;-82
2023/01/27 06:42:22;;;;;;;0.68;0.68;;;3.20;99.90;;;;;;4168505;28;20045;-83
2023/01/27 06:44:22;;;;;;;4.07;0.95;;;3.20;99.90;;;;;;4167433;28;20132;-83
2023/01/27 06:46:24;;;;;;;0.90;0.60;;;3.20;99.90;;;;;;4179097;28;20066;-83
2023/01/27 06:48:26;;;;;;;2.17;0.82;;;3.60;99.90;;;;;;4184559;28;20045;-83
2023/01/27 06:50:28;;;;;;;4.30;1.00;;;4.20;99.90;;;;;;4182509;28;20071;-84
2023/01/27 06:52:29;;;;;;;1.08;0.60;;;3.60;99.90;;;;;;4166487;28;20092;-84
2023/01/27 06:54:30;;;;;;;1.73;1.10;;;3.20;99.90;;;;;;4167904;28;20383;-84
2023/01/27 06:56:30;;;;;;;3.47;0.90;;;4.30;99.90;;;;;;4166561;28;20045;-84
2023/01/27 06:58:31;;;;;;;5.72;1.13;;;3.50;99.90;;;;;;4167493;28;20120;-84
2023/01/27 07:00:32;;;;;;;4.78;0.98;;;3.70;99.90;;;;;;4168047;28;20042;-84
2023/01/27 07:02:34;;;;;;;3.33;0.90;;;3.80;99.90;;;;;;4171633;28;20037;-84
2023/01/27 07:04:35;;;;;;;5.13;0.85;;;3.20;99.90;;;;;;4184138;28;20036;-84
2023/01/27 07:06:37;;;;;;;2.33;1.00;;;3.20;99.90;;;;;;4183411;28;20049;-84
2023/01/27 07:08:39;;;;;;;2.33;0.60;;;4.10;99.90;;;;;;4165444;28;20128;-84
2023/01/27 07:10:39;;;;;;;0.90;0.60;;;3.80;99.90;;;;;;4166522;28;20067;-84
2023/01/27 07:12:40;;;;;;;2.00;1.33;;;3.20;99.90;;;;;;4150226;28;20104;-84
2023/01/27 07:14:42;;;;;;;1.27;0.50;;;4.20;99.90;;;;;;4167579;28;20044;-84
2023/01/27 07:16:42;;;;;;;3.78;0.85;;;3.20;99.90;;;;;;4179562;28;20127;-84
2023/01/27 07:18:43;;;;;;;4.70;0.73;;;3.20;99.90;;;;;;4149740;28;20414;-84
2023/01/27 07:20:44;;;;;;;1.42;0.73;;;3.20;99.90;;;;;;4159360;28;20093;-83
2023/01/27 07:22:44;;;;;;;0.95;0.65;;;3.20;99.90;;;;;;4179513;28;20421;-84
2023/01/27 07:24:45;;;;;;;3.80;0.63;;;3.20;99.90;;;;;;4160019;28;20057;-84
2023/01/27 07:26:46;;;;;;;1.70;0.57;;;3.20;99.90;;;;;;4178520;28;20044;-84
2023/01/27 07:28:49;;;;;;;4.70;0.65;;;3.80;99.90;;;;;;4176131;28;20052;-84
2023/01/27 07:30:50;;;;;;;1.58;0.77;;;3.50;99.90;;;;;;4164376;28;20053;-84
2023/01/27 07:32:54;;;;;;;1.52;0.98;;;4.10;99.90;;;;;;4180883;28;20044;-84
2023/01/27 07:34:54;;;;;;;2.45;0.93;;;3.20;99.90;;;;;;4183692;28;20056;-84
2023/01/27 07:36:56;;;;;;;4.72;0.75;;;3.30;99.90;;;;;;4182135;28;20113;-84
2023/01/27 07:38:57;;;;;;;3.35;1.52;;;3.30;99.90;;;;;;4182578;28;20119;-85
2023/01/27 07:41:03;;;;;;;2.92;0.80;;;3.80;99.90;;;;;;4164809;28;20096;-85
2023/01/27 07:43:05;;;;;;;2.15;0.70;;;3.30;99.90;;;;;;4182477;28;20048;-84
2023/01/27 07:45:06;;;;;;;2.97;0.73;;;3.70;99.90;;;;;;4165552;28;20546;-84
2023/01/27 07:47:07;;;;;;;4.47;0.95;;;3.30;99.90;;;;;;4183535;28;20049;-84
2023/01/27 07:49:08;;;;;;;5.13;1.08;;;3.50;99.90;;;;;;4182305;28;20048;-81
2023/01/27 07:51:13;;;;;;;3.90;0.82;;;3.30;99.90;;;;;;4182111;28;20217;-82
2023/01/27 07:53:14;;;;;;;1.38;0.80;;;3.60;99.90;;;;;;4164770;28;20120;-81
2023/01/27 07:55:15;;;;;;;3.67;0.80;;;3.30;99.90;;;;;;4166951;28;20121;-82
2023/01/27 07:57:16;;;;;;;1.90;0.68;;;3.40;99.90;;;;;;4166762;28;20037;-82
2023/01/27 07:59:16;;;;;;;7.00;1.02;;;3.90;99.90;;;;;;4166657;28;20049;-81
2023/01/27 08:01:17;;;;;;;2.47;0.88;;;3.60;99.90;;;;;;4176864;28;20036;-82
2023/01/27 08:03:24;;;;;;;6.40;1.77;;;3.40;99.90;;;;;;4183330;28;20048;-81
2023/01/27 08:05:28;;;;;;;6.43;1.30;;;3.40;99.90;;;;;;4181480;28;20083;-81
2023/01/27 08:07:29;;;;;;;4.30;1.13;;;3.40;99.90;;;;;;4182472;28;20088;-82
2023/01/27 08:09:31;;;;;;;4.07;1.48;;;3.70;99.90;;;;;;4181667;28;20506;-82
2023/01/27 08:11:33;;;;;;;2.60;1.00;;;3.70;99.90;;;;;;4183253;28;20044;-82
2023/01/27 08:13:35;;;;;;;8.65;0.90;;;3.40;99.90;;;;;;4165405;28;20049;-83
2023/01/27 08:15:36;;;;;;;4.65;1.00;;;4.00;99.90;;;;;;4182110;28;20553;-83
2023/01/27 08:17:36;;;;;;;7.40;0.95;;;4.30;99.90;;;;;;4182947;28;20041;-82
2023/01/27 08:19:38;;;;;;;5.55;1.10;;;3.50;99.90;;;;;;4181956;28;20045;-83
2023/01/27 08:21:39;;;;;;;2.28;0.82;;;3.50;99.90;;;;;;4167593;28;20056;-83
2023/01/27 08:23:40;;;;;;;5.65;1.05;;;3.50;99.90;;;;;;4167469;28;20785;-83
2023/01/27 08:25:47;;;;;;;2.65;1.02;;;4.50;99.90;;;;;;4167104;28;20049;-83
2023/01/27 08:27:52;;;;;;;4.53;1.17;;;3.50;99.90;;;;;;4165520;28;20093;-82
2023/01/27 08:29:53;;;;;;;3.75;1.05;;;3.60;99.90;;;;;;4166465;28;20046;-82
2023/01/27 08:31:53;;;;;;;4.85;1.00;;;3.60;99.90;;;;;;4166305;28;20378;-80
2023/01/27 08:33:54;;;;;;;5.30;1.02;;;3.60;99.90;;;;;;4165956;28;20046;-81
2023/01/27 08:35:55;;;;;;;3.97;1.52;;;3.60;99.90;;;;;;4179353;28;20037;-81
2023/01/27 08:37:56;;;;;;;5.30;1.20;;;3.60;99.90;;;;;;4181577;28;20123;-81
2023/01/27 08:39:56;;;;;;;3.78;0.90;;;3.70;99.90;;;;;;4175115;28;20045;-81
2023/01/27 08:41:59;;;;;;;1.48;0.77;;;4.50;99.90;;;;;;4191524;28;20040;-82
2023/01/27 08:44:00;;;;;;;4.18;1.30;;;3.70;99.90;;;;;;4198515;28;20428;-81
2023/01/27 08:46:01;;;;;;;3.22;1.10;;;3.70;99.90;;;;;;4164882;28;20140;-82
2023/01/27 08:48:04;;;;;;;1.42;0.88;;;4.30;99.90;;;;;;4181372;28;20550;-82
2023/01/27 08:50:05;;;;;;;6.85;1.50;;;3.70;99.90;;;;;;4182752;28;20045;-82
2023/01/27 08:52:06;;;;;;;4.32;1.63;;;3.70;99.90;;;;;;4181358;28;20436;-82
2023/01/27 08:54:08;;;;;;;4.97;1.13;;;3.70;99.90;;;;;;4166982;28;20073;-83
2023/01/27 08:56:13;;;;;;;2.63;1.10;;;3.80;99.90;;;;;;4177704;28;20060;-82
2023/01/27 08:58:13;;;;;;;4.32;0.90;;;3.70;99.90;;;;;;4176631;28;20045;-82
2023/01/27 09:00:14;;;;;;;3.38;1.20;;;3.80;99.90;;;;;;4178947;28;20045;-82
2023/01/27 09:02:15;;;;;;;3.75;1.10;;;3.80;99.90;;;;;;4181588;28;20044;-82
2023/01/27 09:04:17;;;;;;;3.78;0.98;;;4.70;99.90;;;;;;4164566;28;20049;-82
2023/01/27 09:06:20;;;;;;;2.85;0.93;;;4.40;99.90;;;;;;4182484;28;20120;-82
2023/01/27 09:08:23;;;;;;;5.03;1.58;;;3.90;99.90;;;;;;4181414;28;20045;-82
2023/01/27 09:10:23;;;;;;;6.85;1.02;;;3.90;99.90;;;;;;4165000;28;20053;-82
2023/01/27 09:12:24;;;;;;;2.42;0.93;;;4.30;99.90;;;;;;4161914;28;20132;-82
2023/01/27 09:14:26;;;;;;;2.45;1.00;;;3.90;99.90;;;;;;4181911;28;20490;-82
2023/01/27 09:16:27;;;;;;;8.25;1.35;;;4.00;99.90;;;;;;4181004;28;20056;-81
2023/01/27 09:18:28;;;;;;;2.22;0.93;;;4.00;99.90;;;;;;4181939;28;20056;-81
2023/01/27 09:20:30;;;;;;;4.03;1.00;;;4.20;99.90;;;;;;4181744;28;20044;-82
2023/01/27 09:22:31;;;;;;;4.13;1.40;;;4.40;99.90;;;;;;4180296;28;20084;-82
2023/01/27 09:24:31;;;;;;;6.75;1.13;;;4.70;99.90;;;;;;4164372;28;20500;-82
2023/01/27 09:26:32;;;;;;;4.40;1.00;;;4.20;99.90;;;;;;4180625;28;20049;-82
2023/01/27 09:28:34;;;;;;;3.58;1.30;;;4.40;99.90;;;;;;4181536;28;20041;-81
2023/01/27 09:30:34;;;;;;;1.90;1.00;;;4.80;99.90;;;;;;4180708;28;20053;-81
2023/01/27 09:32:36;;;;;;;5.50;1.48;;;4.40;99.90;;;;;;4180333;28;20049;-82
2023/01/27 09:34:38;;;;;;;5.85;1.50;;;4.50;99.90;;;;;;4164576;28;20056;-82
2023/01/27 09:36:45;;;;;;;2.42;1.05;;;4.50;99.90;;;;;;4180867;28;20055;-82
2023/01/27 09:38:54;;;;;;;2.67;1.17;;;5.20;99.90;;;;;;4164136;28;20053;-82
2023/01/27 09:41:02;;;;;;;2.63;0.95;;;4.60;99.90;;;;;;4163589;28;20053;-82
2023/01/27 09:43:30;;;;;;;3.08;1.10;;;4.60;99.90;;;;;;4166334;28;20056;-81
2023/01/27 09:45:34;;;;;;;3.47;0.88;;;4.60;99.90;;;;;;4163954;28;20045;-81
2023/01/27 09:48:01;;;;;;;3.80;1.25;;;4.70;99.90;;;;;;4163875;28;20431;-81
2023/01/27 09:50:09;;;;;;;2.50;1.20;;;4.70;99.90;;;;;;4178766;28;20104;-81
2023/01/27 09:52:19;;;;;;;3.75;1.10;;;4.80;99.90;;;;;;4180567;28;20110;-82
2023/01/27 09:54:29;;;;;;;3.17;1.00;;;4.80;99.90;;;;;;4181760;28;20047;-81
2023/01/27 09:56:32;;;;;;;4.60;1.25;;;5.40;99.90;;;;;;4179842;28;20106;-81
2023/01/27 09:58:58;;;;;;;4.50;1.10;;;5.00;99.90;;;;;;4179741;28;20587;-81
2023/01/27 10:01:04;;;;;;;2.40;1.02;;;5.00;99.90;;;;;;4166418;28;20128;-81
2023/01/27 10:03:22;;;;;;;10.88;1.42;;;5.00;99.90;;;;;;4163838;28;20506;-82
2023/01/27 10:05:56;;;;;;;3.80;1.52;;;5.00;99.90;;;;;;4180502;28;20049;-81
2023/01/27 10:08:04;;;;;;;2.72;0.85;;;4.90;99.90;;;;;;4181224;28;20123;-82
2023/01/27 10:10:23;;;;;;;2.47;0.70;;;4.90;99.90;;;;;;4181408;28;20085;-82
2023/01/27 10:12:32;;;;;;;2.63;0.70;;;5.00;99.90;;;;;;4182302;28;20489;-82
2023/01/27 10:15:02;;;;;;;1.35;0.80;;;4.70;99.90;;;;;;4181272;28;20041;-82
2023/01/27 10:17:08;;;;;;;1.05;0.60;;;4.80;99.90;;;;;;4167474;28;20049;-81
2023/01/27 10:19:31;;;;;;;0.57;0.40;;;5.00;99.90;;;;;;4187491;28;20045;-82
2023/01/27 10:22:04;;;;;;;1.73;0.50;;;4.70;99.90;;;;;;4186598;28;20537;-81
2023/01/27 10:24:22;;;;;;;1.63;0.60;;;4.70;99.90;;;;;;4187616;28;20110;-82
2023/01/27 10:26:30;;;;;;;0.70;0.50;;;4.70;99.90;;;;;;4187065;28;20044;-82
2023/01/27 10:28:32;;;;;;;0.80;0.50;;;4.70;99.90;;;;;;4187040;28;20055;-82
2023/01/27 10:30:35;;;;;;;1.05;0.90;;;4.70;99.90;;;;;;4185127;28;20190;-82
2023/01/27 10:32:45;;;;;;;3.38;0.75;;;4.70;99.90;;;;;;4186037;28;20049;-80
2023/01/27 10:35:04;;;;;;;4.53;1.00;;;4.70;99.90;;;;;;4186205;28;20048;-81
2023/01/27 10:37:08;;;;;;;;;;;4.70;99.90;;;;;;4186687;28;20052;-82
2023/01/27 10:39:38;;;;;;;1.00;0.90;;;4.70;99.90;;;;;;4185914;28;19924;-81
2023/01/27 10:42:11;;;;;;;1.90;0.85;;;4.70;99.90;;;;;;4185167;28;20044;-82
2023/01/27 10:44:43;;;;;;;0.60;0.60;;;4.60;99.90;;;;;;4184324;28;20108;-82
2023/01/27 10:47:06;;;;;;;1.23;0.77;;;4.60;99.90;;;;;;4147847;28;20159;-81
2023/01/27 10:49:21;;;;;;;1.10;0.98;;;4.60;99.90;;;;;;4172852;28;20126;-81
2023/01/27 10:51:34;;;;;;;2.05;1.10;;;4.70;99.90;;;;;;4186079;28;20041;-82
2023/01/27 10:53:57;;;;;;;2.28;1.25;;;4.60;99.90;;;;;;4187152;28;20453;-81
2023/01/27 10:56:08;;;;;;;1.98;1.55;;;4.60;99.90;;;;;;4186785;28;20053;-81
2023/01/27 10:58:19;;;;;;;2.28;1.90;;;4.50;99.90;;;;;;4184758;28;20052;-81
2023/01/27 11:00:34;;;;;;;1.50;1.38;;;4.50;99.90;;;;;;4183502;28;20489;-81
2023/01/27 11:02:46;;;;;;;3.22;1.20;;;4.40;99.90;;;;;;4186199;28;20044;-81
2023/01/27 11:04:54;;;;;;;1.50;1.20;;;4.40;99.90;;;;;;4186019;28;20033;-83
2023/01/27 11:06:58;;;;;;;1.92;1.30;;;4.40;99.90;;;;;;4185351;28;20049;-82
2023/01/27 11:09:34;;;;;;;2.75;1.75;;;4.40;99.90;;;;;;4186985;28;20052;-84
2023/01/27 11:11:43;;;;;;;3.05;1.60;;;4.30;99.90;;;;;;4175936;28;20460;-81
2023/01/27 11:13:45;;;;;;;3.13;1.45;;;4.80;99.90;;;;;;4186832;28;20049;-81
2023/01/27 11:15:47;;;;;;;3.20;1.38;;;4.30;99.90;;;;;;4186216;28;20048;-81
2023/01/27 11:18:00;;;;;;;2.92;1.25;;;4.40;99.90;;;;;;4185736;28;20082;-81
2023/01/27 11:20:00;;;;;;;4.30;1.50;;;4.60;99.90;;;;;;4186564;28;20044;-81
2023/01/27 11:22:03;;;;;;;2.72;1.60;;;4.30;99.90;;;;;;4186670;28;20129;-82
2023/01/27 11:24:20;;;;;;;1.95;1.65;;;4.30;99.90;;;;;;4185256;28;20059;-82
2023/01/27 11:26:38;;;;;;;3.15;1.50;;;4.30;99.90;;;;;;4185736;28;20331;-81
2023/01/27 11:29:08;;;;;;;3.05;2.00;;;4.30;99.90;;;;;;4182692;28;20098;-83